Time;durP1;ratioP1;P1;durP2;ratioP2;P2;SDS_P1;SDS_P2;PMS_P1;PMS_P2;Temp;Humidity;BMP_temperature;BMP_pressure;BME280_temperature;BME280_humidity;BME280_pressure;Samples;Min_cycle;Max_cycle;Signal;HPM_P1;HPM_P2
2022/11/10 00:02:43;;;;;;;4.60;2.10;;;16.50;59.30;;;;;;5084571;28;20571;-92
2022/11/10 00:05:28;;;;;;;3.93;2.40;;;16.30;59.70;;;;;;5082899;28;20446;-88
2022/11/10 00:08:14;;;;;;;3.60;2.33;;;16.20;60.00;;;;;;5080486;28;20450;-89
2022/11/10 00:11:05;;;;;;;7.80;2.50;;;16.20;60.50;;;;;;5074672;28;20469;-88
2022/11/10 00:17:03;;;;;;;3.40;1.93;;;16.00;60.20;;;;;;5080123;28;20558;-90
2022/11/10 00:19:51;;;;;;;5.47;3.03;;;15.90;60.60;;;;;;5098135;28;20456;-87
2022/11/10 00:22:38;;;;;;;2.30;2.10;;;15.90;60.80;;;;;;5082550;28;20490;-90
2022/11/10 00:25:24;;;;;;;6.57;2.43;;;16.00;60.50;;;;;;5062747;28;20468;-87
2022/11/10 00:28:09;;;;;;;3.63;2.30;;;15.80;60.70;;;;;;5094863;28;20542;-87
2022/11/10 00:30:55;;;;;;;16.83;2.70;;;15.90;60.90;;;;;;5069262;28;20435;-87
2022/11/10 00:33:42;;;;;;;3.30;2.20;;;15.90;60.70;;;;;;5098263;28;20442;-91
2022/11/10 00:36:29;;;;;;;6.93;2.00;;;16.10;60.40;;;;;;5066842;28;20990;-90
2022/11/10 00:39:15;;;;;;;4.87;2.30;;;16.10;59.80;;;;;;5074885;28;20467;-88
2022/11/10 00:42:01;;;;;;;6.03;3.90;;;16.10;59.40;;;;;;5065701;28;20499;-89
2022/11/10 00:44:47;;;;;;;10.37;5.50;;;15.90;60.20;;;;;;5077813;28;20444;-90
2022/11/10 00:47:33;;;;;;;11.17;5.77;;;15.90;60.10;;;;;;5073616;28;20503;-90
2022/11/10 00:50:19;;;;;;;19.53;8.27;;;16.00;59.80;;;;;;5058562;28;20470;-90
2022/11/10 00:53:06;;;;;;;20.97;9.40;;;16.00;59.60;;;;;;5067509;28;21045;-88
2022/11/10 00:55:52;;;;;;;11.80;6.30;;;16.00;60.10;;;;;;5066083;28;21030;-87
2022/11/10 00:58:37;;;;;;;9.57;4.90;;;15.90;60.20;;;;;;5075447;28;20450;-88
2022/11/10 01:01:25;;;;;;;7.87;5.93;;;15.80;60.10;;;;;;5075159;28;20448;-87
2022/11/10 01:04:10;;;;;;;5.60;4.40;;;15.80;59.90;;;;;;5083288;28;20899;-87
2022/11/10 01:06:56;;;;;;;6.57;3.90;;;15.70;59.90;;;;;;5098609;28;20447;-89
2022/11/10 01:09:43;;;;;;;7.27;3.77;;;15.70;60.50;;;;;;5080376;28;20447;-91
2022/11/10 01:12:29;;;;;;;4.87;3.33;;;15.70;59.80;;;;;;5065641;28;20481;-88
2022/11/10 01:15:15;;;;;;;3.10;2.90;;;15.70;59.50;;;;;;5096228;28;20455;-88
2022/11/10 01:18:00;;;;;;;4.83;3.00;;;15.70;59.40;;;;;;5067774;28;20439;-87
2022/11/10 01:20:51;;;;;;;4.63;2.77;;;15.70;59.00;;;;;;5075184;28;20482;-90
2022/11/10 01:23:36;;;;;;;8.27;2.97;;;15.70;58.80;;;;;;5075879;28;20482;-90
2022/11/10 01:26:24;;;;;;;4.07;2.50;;;15.60;58.50;;;;;;5085913;28;20458;-88
2022/11/10 01:29:10;;;;;;;4.17;2.23;;;15.40;58.70;;;;;;5073322;28;20451;-87
2022/11/10 01:31:55;;;;;;;6.93;2.47;;;15.30;59.90;;;;;;5059998;28;20504;-88
2022/11/10 01:34:41;;;;;;;4.73;2.40;;;15.10;60.50;;;;;;5067357;28;20443;-89
2022/11/10 01:37:27;;;;;;;5.70;3.37;;;14.60;61.80;;;;;;5062380;28;20465;-89
2022/11/10 01:40:14;;;;;;;9.53;2.53;;;14.50;61.90;;;;;;5094248;28;20452;-90
2022/11/10 01:43:01;;;;;;;2.93;2.23;;;14.00;62.90;;;;;;5076910;28;20470;-88
2022/11/10 01:45:50;;;;;;;9.80;2.67;;;13.80;63.50;;;;;;5094271;28;20780;-87
2022/11/10 01:48:40;;;;;;;5.87;2.80;;;14.10;63.10;;;;;;5094628;28;20542;-88
2022/11/10 01:51:29;;;;;;;4.53;2.70;;;14.30;62.50;;;;;;5076230;28;20443;-88
2022/11/10 01:54:20;;;;;;;4.60;2.30;;;14.50;62.50;;;;;;5076965;28;20450;-87
2022/11/10 01:57:10;;;;;;;3.77;2.63;;;14.70;61.00;;;;;;5065622;28;20442;-91
2022/11/10 01:59:57;;;;;;;5.43;2.30;;;14.70;60.40;;;;;;5086653;28;20962;-90
2022/11/10 02:02:48;;;;;;;6.07;2.50;;;14.80;60.60;;;;;;5064191;28;20834;-87
2022/11/10 02:05:34;;;;;;;5.73;2.63;;;14.80;60.40;;;;;;5076388;28;21019;-90
2022/11/10 02:08:21;;;;;;;9.53;2.30;;;14.80;60.70;;;;;;5078259;28;20472;-87
2022/11/10 02:11:07;;;;;;;3.33;3.03;;;14.80;60.20;;;;;;5078220;28;20454;-88
2022/11/10 02:13:53;;;;;;;2.87;2.47;;;14.90;60.20;;;;;;5094024;28;20491;-90
2022/11/10 02:16:41;;;;;;;6.37;2.83;;;15.00;59.90;;;;;;5097120;28;20453;-88
2022/11/10 02:19:28;;;;;;;5.50;3.23;;;15.00;59.70;;;;;;5066717;28;20463;-88
2022/11/10 02:22:14;;;;;;;9.80;2.57;;;14.90;59.60;;;;;;5084471;28;20470;-88
2022/11/10 02:25:00;;;;;;;5.03;2.83;;;14.90;59.60;;;;;;5068712;28;20434;-88
2022/11/10 02:27:46;;;;;;;5.73;2.00;;;14.90;59.60;;;;;;5067142;28;20443;-87
2022/11/10 02:30:32;;;;;;;6.67;2.70;;;14.90;59.40;;;;;;5077719;28;20493;-87
2022/11/10 02:33:18;;;;;;;5.00;2.10;;;14.90;59.20;;;;;;5068972;28;21001;-88
2022/11/10 02:36:04;;;;;;;4.23;2.30;;;14.90;59.00;;;;;;5088612;28;20443;-90
2022/11/10 02:38:51;;;;;;;5.30;2.20;;;14.90;59.20;;;;;;5077726;28;20439;-90
2022/11/10 02:41:36;;;;;;;4.53;2.60;;;14.80;59.30;;;;;;5092079;28;20553;-88
2022/11/10 02:44:22;;;;;;;3.93;2.67;;;14.70;59.80;;;;;;5080684;28;20460;-91
2022/11/10 02:47:08;;;;;;;6.50;2.50;;;14.50;60.20;;;;;;5077659;28;20674;-87
2022/11/10 02:49:54;;;;;;;3.20;2.43;;;14.40;60.50;;;;;;5068075;28;20451;-87
2022/11/10 02:52:39;;;;;;;4.67;2.60;;;14.10;61.00;;;;;;5097872;28;21072;-88
2022/11/10 02:55:26;;;;;;;3.17;2.40;;;13.90;61.70;;;;;;5060883;28;20685;-88
2022/11/10 02:58:12;;;;;;;3.73;2.33;;;14.00;61.40;;;;;;5083365;28;20438;-88
2022/11/10 03:00:58;;;;;;;4.73;2.10;;;14.10;60.80;;;;;;5082517;28;20436;-88
2022/11/10 03:03:44;;;;;;;2.80;2.40;;;14.20;59.80;;;;;;5093304;28;20466;-91
2022/11/10 03:06:30;;;;;;;4.57;1.97;;;14.30;59.90;;;;;;5068829;28;20893;-88
2022/11/10 03:09:15;;;;;;;4.73;1.90;;;14.30;59.90;;;;;;5077797;28;20986;-88
2022/11/10 03:12:02;;;;;;;3.03;2.07;;;14.40;59.70;;;;;;5095658;28;20841;-89
2022/11/10 03:14:48;;;;;;;4.47;2.77;;;14.20;60.40;;;;;;5078002;28;20530;-88
2022/11/10 03:17:33;;;;;;;3.63;2.13;;;14.30;59.80;;;;;;5063919;28;20441;-88
2022/11/10 03:20:19;;;;;;;5.30;2.17;;;13.90;60.90;;;;;;5064096;28;20471;-91
2022/11/10 03:23:05;;;;;;;5.10;3.10;;;13.30;62.20;;;;;;5063927;28;20468;-90
2022/11/10 03:25:51;;;;;;;5.03;3.47;;;13.10;63.90;;;;;;5080534;28;20450;-88
2022/11/10 03:28:38;;;;;;;4.07;2.80;;;13.00;64.90;;;;;;5068149;28;20447;-88
2022/11/10 03:31:24;;;;;;;7.87;2.40;;;13.40;63.90;;;;;;5066695;28;20520;-88
2022/11/10 03:34:10;;;;;;;3.00;2.17;;;13.70;62.60;;;;;;5093730;28;20439;-88
2022/11/10 03:36:55;;;;;;;4.07;2.40;;;13.90;61.50;;;;;;5082214;28;20454;-87
2022/11/10 03:39:41;;;;;;;3.77;2.10;;;14.10;60.40;;;;;;5076967;28;20453;-89
2022/11/10 03:42:27;;;;;;;5.90;2.47;;;14.10;59.80;;;;;;5080339;28;20459;-88
2022/11/10 03:45:15;;;;;;;2.50;2.30;;;14.10;59.60;;;;;;5078608;28;20440;-87
2022/11/10 03:48:00;;;;;;;9.40;3.17;;;14.10;59.30;;;;;;5062396;28;20571;-89
2022/11/10 03:50:46;;;;;;;6.90;3.10;;;14.10;59.40;;;;;;5079390;28;20479;-88
2022/11/10 03:53:32;;;;;;;5.87;2.50;;;14.00;60.00;;;;;;5076103;28;20475;-87
2022/11/10 03:56:18;;;;;;;6.77;2.60;;;13.90;60.60;;;;;;5087791;28;20438;-88
2022/11/10 03:59:03;;;;;;;4.80;2.33;;;13.80;60.50;;;;;;5079882;28;20441;-87
2022/11/10 04:01:50;;;;;;;5.20;2.63;;;13.90;59.90;;;;;;5079182;28;20468;-86
2022/11/10 04:10:43;;;;;;;4.70;2.30;;;13.80;59.50;;;;;;5086444;28;20503;-88
2022/11/10 04:16:31;;;;;;;12.10;5.73;;;13.90;59.10;;;;;;5065709;28;20488;-87
2022/11/10 04:19:19;;;;;;;6.63;4.40;;;13.90;59.10;;;;;;5097943;28;20922;-88
2022/11/10 04:22:04;;;;;;;5.93;3.43;;;13.80;59.00;;;;;;5063233;28;20475;-88
2022/11/10 04:24:50;;;;;;;6.77;4.77;;;13.70;59.40;;;;;;5073651;28;20454;-88
2022/11/10 04:27:36;;;;;;;14.00;6.63;;;13.60;60.00;;;;;;5077195;28;20448;-88
2022/11/10 04:30:21;;;;;;;12.57;7.40;;;13.60;59.60;;;;;;5095957;28;20993;-90
2022/11/10 04:33:07;;;;;;;17.63;9.27;;;13.70;59.30;;;;;;5079229;28;20463;-90
2022/11/10 04:35:54;;;;;;;34.27;16.93;;;13.60;59.70;;;;;;5084808;28;20446;-88
2022/11/10 04:38:40;;;;;;;31.60;14.13;;;13.60;59.30;;;;;;5080104;28;20939;-87
2022/11/10 04:41:27;;;;;;;45.03;27.50;;;13.40;60.00;;;;;;5076607;28;20447;-89
2022/11/10 04:44:12;;;;;;;24.70;14.67;;;13.10;61.40;;;;;;5085130;28;20817;-88
2022/11/10 04:46:58;;;;;;;11.73;7.40;;;13.00;61.50;;;;;;5099717;28;20442;-90
2022/11/10 04:49:44;;;;;;;21.00;13.53;;;13.10;61.90;;;;;;5078724;28;20448;-89
2022/11/10 04:52:31;;;;;;;31.70;18.77;;;13.30;60.60;;;;;;5065450;28;20546;-88
2022/11/10 04:55:16;;;;;;;20.23;13.53;;;13.40;59.70;;;;;;5080000;28;20455;-92
2022/11/10 04:58:02;;;;;;;10.47;6.73;;;13.50;59.70;;;;;;5078257;28;20972;-88
2022/11/10 05:00:48;;;;;;;10.80;6.47;;;13.50;59.20;;;;;;5060340;28;20443;-88
2022/11/10 05:03:34;;;;;;;8.10;5.53;;;13.50;59.70;;;;;;5067105;28;20632;-88
2022/11/10 05:06:20;;;;;;;11.17;5.40;;;13.50;59.00;;;;;;5094530;28;20466;-90
2022/11/10 05:09:07;;;;;;;10.97;6.07;;;13.50;58.80;;;;;;5063731;28;20811;-88
2022/11/10 05:11:53;;;;;;;7.77;6.50;;;13.50;58.70;;;;;;5073795;28;21110;-88
2022/11/10 05:14:38;;;;;;;16.43;4.90;;;13.40;59.00;;;;;;5058626;28;20447;-92
2022/11/10 05:17:24;;;;;;;5.83;3.57;;;13.30;59.70;;;;;;5063518;28;20459;-88
2022/11/10 05:20:10;;;;;;;8.37;3.83;;;13.00;61.10;;;;;;5077194;28;20443;-89
2022/11/10 05:26:00;;;;;;;5.90;3.23;;;12.80;61.00;;;;;;5060938;28;20453;-88
2022/11/10 05:28:46;;;;;;;6.30;3.20;;;12.60;61.80;;;;;;5075885;28;20432;-88
2022/11/10 05:31:32;;;;;;;6.57;4.07;;;12.60;62.60;;;;;;5062412;28;20434;-88
2022/11/10 05:34:18;;;;;;;6.53;4.40;;;12.80;61.60;;;;;;5070654;28;20423;-88
2022/11/10 05:37:03;;;;;;;4.40;4.00;;;12.90;61.30;;;;;;5099762;28;20446;-92
2022/11/10 05:39:49;;;;;;;6.30;4.47;;;13.00;60.70;;;;;;5080301;28;20533;-89
2022/11/10 05:42:42;;;;;;;9.53;4.13;;;13.00;60.60;;;;;;5097511;28;20507;-90
2022/11/10 05:45:29;;;;;;;13.40;4.20;;;13.00;60.40;;;;;;5069641;28;20431;-87
2022/11/10 05:48:15;;;;;;;4.87;3.77;;;13.00;60.60;;;;;;5099767;28;20486;-88
2022/11/10 05:51:01;;;;;;;6.20;3.40;;;13.10;60.10;;;;;;5078695;28;20446;-87
2022/11/10 05:53:46;;;;;;;7.07;3.20;;;13.10;59.60;;;;;;5067961;28;20484;-89
2022/11/10 05:56:32;;;;;;;5.10;3.13;;;13.00;61.10;;;;;;5076551;28;20452;-90
2022/11/10 05:59:19;;;;;;;5.10;2.93;;;13.10;60.30;;;;;;5096087;28;20451;-89
2022/11/10 06:02:05;;;;;;;3.20;2.80;;;13.10;59.60;;;;;;5093341;28;20494;-89
2022/11/10 06:04:50;;;;;;;3.90;3.00;;;13.10;59.70;;;;;;5098034;28;20471;-87
2022/11/10 06:07:35;;;;;;;5.73;4.07;;;13.00;59.60;;;;;;5072675;28;20470;-87
2022/11/10 06:10:21;;;;;;;4.20;3.60;;;12.80;60.80;;;;;;5085120;28;20450;-88
2022/11/10 06:13:07;;;;;;;5.07;4.10;;;12.70;61.40;;;;;;5098881;28;20546;-89
2022/11/10 06:15:54;;;;;;;7.00;4.40;;;12.70;61.10;;;;;;5075867;28;21113;-90
2022/11/10 06:18:39;;;;;;;4.70;4.10;;;12.80;60.50;;;;;;5076512;28;20447;-87
2022/11/10 06:21:25;;;;;;;6.00;4.00;;;12.80;60.60;;;;;;5096479;28;20958;-89
2022/11/10 06:24:11;;;;;;;6.87;4.53;;;12.90;60.00;;;;;;5070651;28;20466;-90
2022/11/10 06:26:56;;;;;;;4.83;4.40;;;12.90;59.70;;;;;;5084265;28;20576;-87
2022/11/10 06:29:42;;;;;;;5.00;4.40;;;12.90;60.40;;;;;;5080765;28;20784;-88
2022/11/10 06:32:29;;;;;;;12.77;5.40;;;12.90;60.40;;;;;;5079169;28;20506;-88
2022/11/10 06:35:15;;;;;;;16.83;5.37;;;13.00;60.00;;;;;;5087347;28;20442;-88
2022/11/10 06:38:04;;;;;;;5.77;5.00;;;13.00;59.60;;;;;;5075784;28;20500;-88
2022/11/10 06:40:50;;;;;;;16.87;11.20;;;13.10;59.30;;;;;;5061826;28;20478;-88
2022/11/10 06:43:36;;;;;;;135.77;55.23;;;13.00;58.90;;;;;;5067433;28;20474;-90
2022/11/10 06:46:22;;;;;;;67.17;33.43;;;13.00;59.40;;;;;;5096714;28;20614;-88
2022/11/10 06:49:09;;;;;;;21.50;11.97;;;13.10;59.80;;;;;;5086119;28;20577;-90
2022/11/10 06:51:55;;;;;;;16.97;10.00;;;12.90;60.50;;;;;;5085795;28;20485;-88
2022/11/10 06:54:41;;;;;;;14.00;7.57;;;12.80;60.50;;;;;;5070285;28;20478;-90
2022/11/10 06:57:27;;;;;;;9.90;6.63;;;12.30;61.70;;;;;;5066682;28;20957;-87
2022/11/10 07:00:14;;;;;;;9.03;5.97;;;12.20;62.20;;;;;;5080054;28;20551;-89
2022/11/10 07:03:05;;;;;;;8.20;5.03;;;11.90;63.80;;;;;;5077787;28;20476;-91
2022/11/10 07:05:52;;;;;;;9.93;6.20;;;12.00;64.30;;;;;;5080885;28;20446;-88
2022/11/10 07:08:38;;;;;;;6.90;4.33;;;12.30;63.00;;;;;;5083579;28;20436;-88
2022/11/10 07:11:23;;;;;;;7.10;4.30;;;12.50;62.00;;;;;;5090880;28;20798;-88
2022/11/10 07:14:10;;;;;;;5.33;4.70;;;12.50;62.10;;;;;;5069165;28;20430;-88
2022/11/10 07:16:55;;;;;;;4.70;4.13;;;12.50;62.00;;;;;;5107517;28;20526;-90
2022/11/10 07:19:41;;;;;;;7.50;3.80;;;12.60;62.60;;;;;;5083331;28;20435;-89
2022/11/10 07:22:28;;;;;;;4.87;4.30;;;12.70;61.90;;;;;;5070217;28;20511;-88
2022/11/10 07:25:14;;;;;;;6.07;4.20;;;12.70;61.50;;;;;;5073262;28;20463;-90
2022/11/10 07:28:01;;;;;;;9.03;5.80;;;12.80;61.00;;;;;;5074136;28;20449;-88
2022/11/10 07:30:47;;;;;;;16.60;10.77;;;12.80;60.00;;;;;;5070874;28;20431;-89
2022/11/10 07:33:33;;;;;;;37.20;26.30;;;12.60;60.60;;;;;;5083538;28;20471;-89
2022/11/10 07:36:18;;;;;;;45.80;41.37;;;12.40;61.10;;;;;;5067146;28;20461;-92
2022/11/10 07:39:06;;;;;;;26.50;21.47;;;12.30;61.30;;;;;;5102038;28;20446;-89
2022/11/10 07:41:52;;;;;;;32.03;28.30;;;12.20;62.10;;;;;;5087230;28;20548;-92
2022/11/10 07:44:38;;;;;;;49.03;41.10;;;12.00;62.70;;;;;;5064946;28;20466;-89
2022/11/10 07:47:24;;;;;;;18.23;12.77;;;11.90;63.40;;;;;;5059297;28;20432;-89
2022/11/10 07:50:10;;;;;;;21.30;15.13;;;11.70;64.20;;;;;;5080591;28;20529;-87
2022/11/10 07:53:06;;;;;;;15.97;11.50;;;11.80;64.10;;;;;;5067866;28;20463;-91
2022/11/10 07:55:54;;;;;;;11.87;9.30;;;12.00;63.30;;;;;;5081596;28;20427;-88
2022/11/10 07:58:40;;;;;;;10.70;7.37;;;12.10;63.80;;;;;;5097003;28;20535;-93
2022/11/10 08:01:26;;;;;;;8.27;6.90;;;12.40;63.20;;;;;;5078759;28;20536;-88
2022/11/10 08:04:12;;;;;;;7.43;6.63;;;12.50;63.20;;;;;;5072203;28;20459;-87
2022/11/10 08:06:58;;;;;;;15.23;8.10;;;12.70;61.70;;;;;;5063528;28;20704;-88
2022/11/10 08:09:44;;;;;;;10.77;8.30;;;12.70;61.50;;;;;;5095714;28;20502;-88
2022/11/10 08:12:31;;;;;;;8.47;7.10;;;12.90;61.10;;;;;;5075445;28;20643;-86
2022/11/10 08:15:17;;;;;;;10.80;8.30;;;12.90;60.50;;;;;;5097633;28;20487;-89
2022/11/10 08:18:05;;;;;;;14.93;11.33;;;13.00;60.40;;;;;;5069230;28;20443;-87
2022/11/10 08:20:51;;;;;;;13.77;10.10;;;12.90;61.10;;;;;;5077268;28;20447;-88
2022/11/10 08:23:36;;;;;;;10.03;7.70;;;12.80;62.30;;;;;;5060511;28;20471;-88
2022/11/10 08:26:22;;;;;;;10.53;7.60;;;12.90;61.90;;;;;;5080923;28;20568;-87
2022/11/10 08:29:09;;;;;;;10.40;6.17;;;12.90;62.30;;;;;;5066288;28;20869;-87
2022/11/10 08:31:55;;;;;;;9.73;6.67;;;13.00;61.80;;;;;;5098423;28;21305;-86
2022/11/10 08:34:40;;;;;;;8.20;5.10;;;12.90;62.50;;;;;;5077534;28;20447;-88
2022/11/10 08:37:26;;;;;;;7.67;5.57;;;12.90;62.30;;;;;;5076836;28;20447;-90
2022/11/10 08:40:12;;;;;;;9.30;5.57;;;13.00;62.20;;;;;;5082663;28;20480;-91
2022/11/10 08:42:59;;;;;;;10.07;5.50;;;13.00;61.60;;;;;;5065842;28;20470;-90
2022/11/10 08:45:46;;;;;;;7.80;5.80;;;13.00;62.40;;;;;;5071232;28;21004;-90
2022/11/10 08:48:32;;;;;;;10.87;8.00;;;13.00;63.70;;;;;;5065675;28;20447;-93
2022/11/10 08:51:18;;;;;;;12.30;7.53;;;13.10;63.30;;;;;;5060986;28;21076;-89
2022/11/10 08:54:04;;;;;;;13.00;9.40;;;13.10;63.30;;;;;;5071420;28;20459;-89
2022/11/10 08:56:49;;;;;;;9.80;5.70;;;13.10;64.20;;;;;;5080095;28;20925;-88
2022/11/10 08:59:35;;;;;;;10.13;5.90;;;13.10;64.50;;;;;;5078922;28;20447;-88
2022/11/10 09:02:23;;;;;;;6.80;6.10;;;13.10;65.00;;;;;;5080069;28;20845;-88
2022/11/10 09:05:09;;;;;;;10.93;5.10;;;13.20;65.20;;;;;;5076656;28;20485;-87
2022/11/10 09:07:55;;;;;;;7.93;6.70;;;13.10;65.50;;;;;;5095671;28;20471;-86
2022/11/10 09:10:42;;;;;;;5.73;5.13;;;13.30;65.00;;;;;;5083359;28;20446;-90
2022/11/10 09:13:28;;;;;;;9.97;8.97;;;13.40;64.50;;;;;;5101027;28;20464;-87
2022/11/10 09:16:14;;;;;;;6.93;5.30;;;13.20;66.00;;;;;;5077439;28;20534;-89
2022/11/10 09:19:01;;;;;;;7.10;5.20;;;13.40;65.70;;;;;;5065890;28;20472;-89
2022/11/10 09:21:46;;;;;;;9.50;5.20;;;13.50;65.30;;;;;;5095628;28;20469;-88
2022/11/10 09:24:32;;;;;;;5.20;4.40;;;13.40;66.20;;;;;;5081764;28;20486;-88
2022/11/10 09:27:18;;;;;;;7.10;5.33;;;13.50;65.80;;;;;;5081377;28;20962;-90
2022/11/10 09:30:05;;;;;;;5.07;4.10;;;13.60;66.50;;;;;;5098077;28;20456;-88
2022/11/10 09:32:53;;;;;;;7.53;4.63;;;13.60;66.00;;;;;;5098189;28;20459;-91
2022/11/10 09:35:41;;;;;;;3.67;3.27;;;13.70;65.60;;;;;;5078617;28;20518;-88
2022/11/10 09:38:27;;;;;;;8.70;4.17;;;13.50;67.20;;;;;;5077025;28;20455;-87
2022/11/10 09:41:14;;;;;;;13.90;9.00;;;13.60;66.80;;;;;;5069592;28;20436;-89
2022/11/10 09:44:05;;;;;;;6.20;3.70;;;13.80;66.50;;;;;;5081509;28;20550;-88
2022/11/10 09:46:57;;;;;;;6.27;3.63;;;13.90;66.40;;;;;;5081283;28;20962;-89
2022/11/10 09:49:49;;;;;;;5.50;3.77;;;13.80;66.90;;;;;;5076768;28;20530;-89
2022/11/10 09:52:37;;;;;;;9.73;4.33;;;14.00;66.60;;;;;;5076212;28;20494;-88
2022/11/10 09:55:31;;;;;;;4.70;3.70;;;13.90;66.90;;;;;;5066831;28;20520;-88
2022/11/10 09:58:18;;;;;;;9.30;6.43;;;14.10;66.10;;;;;;5079274;28;20495;-90
2022/11/10 10:01:18;;;;;;;13.13;3.87;;;14.00;66.70;;;;;;5082727;28;20976;-88
2022/11/10 10:04:14;;;;;;;8.30;5.07;;;14.10;66.90;;;;;;5085103;28;20495;-89
2022/11/10 10:07:08;;;;;;;11.83;6.30;;;14.30;67.00;;;;;;5101551;28;20936;-89
2022/11/10 10:10:04;;;;;;;12.53;6.67;;;14.40;65.40;;;;;;5084638;28;20442;-88
2022/11/10 10:13:01;;;;;;;10.10;3.80;;;14.60;65.10;;;;;;5084479;28;20481;-88
2022/11/10 10:16:03;;;;;;;5.03;3.30;;;14.70;64.30;;;;;;5070420;28;21226;-88
2022/11/10 10:18:59;;;;;;;7.53;4.30;;;14.60;65.30;;;;;;5072723;28;21737;-88
2022/11/10 10:21:59;;;;;;;6.20;4.00;;;14.80;64.80;;;;;;5085279;28;20463;-90
2022/11/10 10:24:45;;;;;;;6.00;3.00;;;14.70;64.70;;;;;;5074382;28;20987;-90
2022/11/10 10:27:34;;;;;;;2.73;2.50;;;14.90;64.20;;;;;;5075297;28;20442;-89
2022/11/10 10:30:21;;;;;;;4.83;2.97;;;14.90;63.60;;;;;;5073480;28;20442;-86
2022/11/10 10:33:14;;;;;;;5.00;2.53;;;15.00;63.80;;;;;;5072684;28;20457;-87
2022/11/10 10:36:07;;;;;;;3.77;3.03;;;15.10;63.70;;;;;;5102177;27;20537;-89
2022/11/10 10:38:56;;;;;;;4.40;2.80;;;15.30;63.20;;;;;;5087091;28;20443;-89
2022/11/10 10:41:45;;;;;;;5.80;2.80;;;15.50;62.70;;;;;;5105853;28;20506;-88
2022/11/10 10:44:32;;;;;;;5.73;2.17;;;15.50;62.20;;;;;;5089465;28;20441;-88
2022/11/10 10:47:18;;;;;;;8.53;2.13;;;15.40;61.80;;;;;;5088450;28;20450;-87
2022/11/10 10:50:23;;;;;;;6.27;3.00;;;15.30;62.20;;;;;;5073564;28;20443;-88
2022/11/10 10:53:13;;;;;;;8.93;3.27;;;15.40;61.80;;;;;;5095478;28;20524;-91
2022/11/10 10:56:02;;;;;;;8.17;2.80;;;15.70;61.10;;;;;;5072115;28;20442;-88
2022/11/10 10:58:53;;;;;;;6.13;2.17;;;15.80;60.80;;;;;;5083779;28;20446;-88
2022/11/10 11:01:43;;;;;;;4.17;2.13;;;15.70;60.70;;;;;;5073968;28;20448;-88
2022/11/10 11:04:34;;;;;;;12.07;2.73;;;15.80;61.10;;;;;;5082317;28;20519;-90
2022/11/10 11:07:22;;;;;;;5.20;2.90;;;15.80;60.40;;;;;;5086985;28;20447;-89
2022/11/10 11:10:26;;;;;;;7.23;2.90;;;15.90;59.90;;;;;;5076091;28;20427;-87
2022/11/10 11:13:16;;;;;;;6.43;1.77;;;16.20;59.90;;;;;;5089081;28;20462;-87
2022/11/10 11:16:06;;;;;;;4.50;1.83;;;16.20;59.40;;;;;;5076124;28;20439;-88
2022/11/10 11:18:53;;;;;;;6.90;1.57;;;16.20;59.20;;;;;;5077340;28;20523;-87
2022/11/10 11:21:53;;;;;;;12.70;2.70;;;16.00;59.00;;;;;;5088582;28;20490;-89
2022/11/10 11:24:47;;;;;;;4.57;1.97;;;16.10;59.20;;;;;;5102551;28;20922;-88
2022/11/10 11:27:39;;;;;;;3.57;1.87;;;16.30;58.70;;;;;;5083438;28;20943;-89
2022/11/10 11:30:31;;;;;;;3.10;1.50;;;16.30;59.50;;;;;;5099249;28;20470;-89
2022/11/10 11:33:28;;;;;;;3.57;1.83;;;16.50;58.00;;;;;;5064192;28;20547;-88
2022/11/10 11:36:24;;;;;;;4.40;1.87;;;16.60;58.10;;;;;;5086709;28;20538;-89
2022/11/10 11:39:22;;;;;;;4.43;2.27;;;16.80;57.40;;;;;;5083612;28;20451;-88
2022/11/10 11:42:19;;;;;;;6.60;2.60;;;17.10;57.40;;;;;;5099974;28;20469;-89
2022/11/10 11:45:16;;;;;;;7.10;1.90;;;17.10;56.80;;;;;;5101069;28;20467;-89
2022/11/10 11:48:36;;;;;;;1.90;1.47;;;17.50;56.20;;;;;;5072318;28;20997;-89
2022/11/10 11:51:28;;;;;;;2.83;1.30;;;17.70;55.30;;;;;;5083900;28;20445;-88
2022/11/10 11:54:41;;;;;;;6.53;1.73;;;17.70;54.90;;;;;;5066123;28;20987;-88
2022/11/10 11:57:35;;;;;;;6.30;1.60;;;18.00;54.50;;;;;;5079514;28;20446;-86
2022/11/10 12:00:21;;;;;;;7.03;1.80;;;18.20;54.20;;;;;;5072795;28;20446;-90
2022/11/10 12:03:49;;;;;;;5.63;3.10;;;18.30;53.10;;;;;;5070307;28;20465;-89
2022/11/10 12:06:51;;;;;;;47.30;19.47;;;18.70;52.50;;;;;;5083390;28;20471;-88
2022/11/10 12:09:44;;;;;;;16.60;6.90;;;18.90;52.80;;;;;;5102916;28;20438;-88
2022/11/10 12:12:47;;;;;;;40.70;18.27;;;18.70;53.30;;;;;;5083045;28;21217;-88
2022/11/10 12:15:40;;;;;;;27.73;14.30;;;19.00;53.70;;;;;;5082939;28;20447;-89
2022/11/10 12:18:32;;;;;;;3.30;2.40;;;19.00;53.20;;;;;;5080486;28;20528;-91
2022/11/10 12:21:29;;;;;;;6.13;2.40;;;19.20;50.90;;;;;;5068062;28;20954;-90
2022/11/10 12:24:40;;;;;;;5.07;1.77;;;19.00;52.00;;;;;;5079843;28;20443;-91
2022/11/10 12:27:30;;;;;;;7.03;4.37;;;19.40;52.20;;;;;;5100671;28;20509;-89
2022/11/10 12:30:18;;;;;;;6.03;3.97;;;19.60;52.50;;;;;;5079436;28;20443;-88
2022/11/10 12:33:07;;;;;;;5.80;2.97;;;19.70;50.60;;;;;;5081096;28;20469;-88
2022/11/10 12:35:55;;;;;;;4.60;2.90;;;19.70;51.20;;;;;;5082975;28;21022;-90
2022/11/10 12:38:48;;;;;;;3.43;1.50;;;19.60;49.90;;;;;;5105761;28;20479;-88
2022/11/10 12:41:41;;;;;;;3.93;1.47;;;19.70;48.60;;;;;;5085760;28;20521;-88
2022/11/10 12:44:31;;;;;;;7.50;1.50;;;19.70;49.60;;;;;;5095595;28;20494;-89
2022/11/10 12:47:20;;;;;;;3.27;1.80;;;19.50;47.20;;;;;;5076776;28;20458;-88
2022/11/10 12:50:20;;;;;;;3.67;2.00;;;19.30;48.20;;;;;;5067405;28;20517;-89
2022/11/10 12:53:14;;;;;;;6.50;2.60;;;19.10;48.00;;;;;;5064192;28;20458;-88
2022/11/10 12:56:05;;;;;;;6.23;1.57;;;18.50;48.00;;;;;;5078039;28;20443;-88
2022/11/10 12:59:14;;;;;;;8.10;2.03;;;18.70;48.30;;;;;;5059241;28;20454;-88
2022/11/10 13:02:03;;;;;;;8.50;2.17;;;18.80;48.60;;;;;;5071087;28;20466;-88
2022/11/10 13:05:22;;;;;;;10.00;2.90;;;18.80;49.10;;;;;;5055786;28;20650;-89
2022/11/10 13:08:16;;;;;;;7.50;1.97;;;18.70;47.60;;;;;;5076306;28;20512;-90
2022/11/10 13:11:05;;;;;;;7.27;3.90;;;18.60;48.90;;;;;;5076887;28;20440;-87
2022/11/10 13:13:56;;;;;;;9.03;3.60;;;18.50;49.40;;;;;;5083318;28;20973;-88
2022/11/10 13:16:52;;;;;;;12.13;3.70;;;18.40;50.70;;;;;;5062450;28;20482;-90
2022/11/10 13:19:53;;;;;;;7.13;3.40;;;18.40;50.30;;;;;;5059896;28;20496;-88
2022/11/10 13:22:40;;;;;;;9.40;3.13;;;18.30;49.90;;;;;;5092392;28;20463;-91
2022/11/10 13:25:51;;;;;;;5.80;2.67;;;18.50;50.20;;;;;;5079608;28;20466;-88
2022/11/10 13:28:57;;;;;;;8.10;2.00;;;18.60;49.30;;;;;;5065860;28;20443;-88
2022/11/10 13:31:56;;;;;;;7.23;2.90;;;18.90;49.40;;;;;;5098421;28;20481;-88
2022/11/10 13:34:43;;;;;;;5.10;2.50;;;19.00;49.00;;;;;;5076842;28;20428;-89
2022/11/10 13:37:49;;;;;;;5.37;3.30;;;19.10;49.80;;;;;;5098743;28;20466;-90
2022/11/10 13:40:38;;;;;;;3.77;3.47;;;19.10;47.60;;;;;;5097452;28;20475;-90
2022/11/10 13:43:26;;;;;;;10.73;1.80;;;18.90;48.20;;;;;;5066000;28;20467;-88
2022/11/10 13:46:14;;;;;;;3.93;1.60;;;18.90;48.60;;;;;;5064041;28;20476;-88
2022/11/10 13:49:26;;;;;;;3.33;1.40;;;18.80;48.30;;;;;;5080380;28;20953;-89
2022/11/10 13:52:16;;;;;;;3.00;1.67;;;18.80;48.10;;;;;;5092085;28;20486;-88
2022/11/10 13:55:35;;;;;;;5.60;1.90;;;18.60;47.30;;;;;;5077088;28;20902;-89
2022/11/10 13:58:25;;;;;;;3.23;1.33;;;18.30;48.90;;;;;;5053487;28;20850;-89
2022/11/10 14:01:26;;;;;;;3.60;1.50;;;18.20;48.90;;;;;;5082160;28;20954;-89
2022/11/10 14:04:38;;;;;;;8.57;1.90;;;18.10;48.10;;;;;;5070881;28;20986;-89
2022/11/10 14:07:23;;;;;;;3.20;1.40;;;18.00;47.90;;;;;;5088274;28;20571;-88
2022/11/10 14:10:14;;;;;;;3.43;1.47;;;17.90;48.40;;;;;;5098259;28;20449;-88
2022/11/10 14:13:04;;;;;;;2.83;2.00;;;17.90;47.00;;;;;;5085382;28;20982;-89
2022/11/10 14:15:52;;;;;;;3.20;1.40;;;17.90;47.40;;;;;;5086934;28;20444;-88
2022/11/10 14:18:42;;;;;;;5.73;1.73;;;18.10;47.40;;;;;;5085557;28;20453;-89
2022/11/10 14:21:35;;;;;;;2.40;1.53;;;18.10;47.70;;;;;;5079457;28;20444;-91
2022/11/10 14:24:25;;;;;;;4.00;3.10;;;18.10;47.70;;;;;;5092425;28;20938;-88
2022/11/10 14:27:15;;;;;;;3.63;1.00;;;18.00;48.40;;;;;;5095933;28;20471;-90
2022/11/10 14:30:20;;;;;;;7.37;1.67;;;17.90;46.80;;;;;;5077269;28;20836;-89
2022/11/10 14:33:11;;;;;;;3.10;1.30;;;17.80;49.50;;;;;;5064625;28;20462;-88
2022/11/10 14:36:00;;;;;;;7.27;2.00;;;18.00;48.90;;;;;;5078158;28;20442;-86
2022/11/10 14:38:46;;;;;;;4.57;1.70;;;18.10;48.80;;;;;;5062355;28;20450;-87
2022/11/10 14:41:32;;;;;;;5.27;1.90;;;18.20;49.20;;;;;;5090067;28;20477;-88
2022/11/10 14:44:22;;;;;;;7.20;1.83;;;18.30;48.30;;;;;;5090871;28;20443;-90
2022/11/10 14:47:16;;;;;;;7.90;2.10;;;18.40;48.40;;;;;;5083253;28;20945;-88
2022/11/10 14:50:07;;;;;;;5.47;2.20;;;18.40;48.00;;;;;;5082244;28;20439;-87
2022/11/10 14:52:58;;;;;;;49.40;16.60;;;18.40;47.90;;;;;;5086482;28;20459;-88